sensor_id;sensor_type;location;lat;lon;timestamp;P1;durP1;ratioP1;P2;durP2;ratioP2
79583;SDS011;69053;57.338;18.700;2023-04-15T00:01:40;12.00;;;4.95;;
79583;SDS011;69053;57.338;18.700;2023-04-15T00:06:40;9.35;;;4.93;;
79583;SDS011;69053;57.338;18.700;2023-04-15T00:11:41;8.93;;;4.68;;
79583;SDS011;69053;57.338;18.700;2023-04-15T00:16:41;7.40;;;4.45;;
79583;SDS011;69053;57.338;18.700;2023-04-15T00:21:42;11.40;;;4.70;;
79583;SDS011;69053;57.338;18.700;2023-04-15T00:26:42;7.03;;;4.40;;
79583;SDS011;69053;57.338;18.700;2023-04-15T00:31:43;10.35;;;4.40;;
79583;SDS011;69053;57.338;18.700;2023-04-15T00:36:43;6.47;;;4.03;;
79583;SDS011;69053;57.338;18.700;2023-04-15T00:41:44;8.18;;;4.13;;
79583;SDS011;69053;57.338;18.700;2023-04-15T00:46:45;6.40;;;4.32;;
79583;SDS011;69053;57.338;18.700;2023-04-15T00:51:47;9.20;;;4.40;;
79583;SDS011;69053;57.338;18.700;2023-04-15T00:56:48;10.20;;;4.55;;
79583;SDS011;69053;57.338;18.700;2023-04-15T01:01:49;7.90;;;4.43;;
79583;SDS011;69053;57.338;18.700;2023-04-15T01:06:50;8.68;;;4.28;;
79583;SDS011;69053;57.338;18.700;2023-04-15T01:11:51;8.05;;;4.05;;
79583;SDS011;69053;57.338;18.700;2023-04-15T01:16:52;6.68;;;4.22;;
79583;SDS011;69053;57.338;18.700;2023-04-15T01:21:53;8.40;;;3.85;;
79583;SDS011;69053;57.338;18.700;2023-04-15T01:26:54;8.35;;;3.50;;
79583;SDS011;69053;57.338;18.700;2023-04-15T01:31:54;9.63;;;3.60;;
79583;SDS011;69053;57.338;18.700;2023-04-15T01:36:55;5.63;;;3.47;;
79583;SDS011;69053;57.338;18.700;2023-04-15T01:41:56;6.50;;;3.67;;
79583;SDS011;69053;57.338;18.700;2023-04-15T01:46:57;6.22;;;3.30;;
79583;SDS011;69053;57.338;18.700;2023-04-15T01:51:58;8.27;;;3.42;;
79583;SDS011;69053;57.338;18.700;2023-04-15T01:56:59;9.15;;;3.38;;
79583;SDS011;69053;57.338;18.700;2023-04-15T02:02:01;5.50;;;3.25;;
79583;SDS011;69053;57.338;18.700;2023-04-15T02:07:01;9.55;;;3.45;;
79583;SDS011;69053;57.338;18.700;2023-04-15T02:12:02;6.35;;;3.10;;
79583;SDS011;69053;57.338;18.700;2023-04-15T02:17:03;6.78;;;3.08;;
79583;SDS011;69053;57.338;18.700;2023-04-15T02:22:07;6.60;;;3.00;;
79583;SDS011;69053;57.338;18.700;2023-04-15T02:27:08;8.82;;;4.07;;
79583;SDS011;69053;57.338;18.700;2023-04-15T02:32:09;5.30;;;2.83;;
79583;SDS011;69053;57.338;18.700;2023-04-15T02:37:11;5.40;;;2.90;;
79583;SDS011;69053;57.338;18.700;2023-04-15T02:42:12;7.65;;;3.17;;
79583;SDS011;69053;57.338;18.700;2023-04-15T02:47:13;7.93;;;3.17;;
79583;SDS011;69053;57.338;18.700;2023-04-15T02:52:15;8.75;;;2.97;;
79583;SDS011;69053;57.338;18.700;2023-04-15T02:57:15;8.10;;;2.97;;
79583;SDS011;69053;57.338;18.700;2023-04-15T03:02:16;6.75;;;2.88;;
79583;SDS011;69053;57.338;18.700;2023-04-15T03:07:17;4.55;;;2.50;;
79583;SDS011;69053;57.338;18.700;2023-04-15T03:12:17;3.45;;;2.42;;
79583;SDS011;69053;57.338;18.700;2023-04-15T03:17:18;4.22;;;2.60;;
79583;SDS011;69053;57.338;18.700;2023-04-15T03:22:18;5.70;;;2.83;;
79583;SDS011;69053;57.338;18.700;2023-04-15T03:27:21;6.88;;;2.53;;
79583;SDS011;69053;57.338;18.700;2023-04-15T03:32:21;5.38;;;3.15;;
79583;SDS011;69053;57.338;18.700;2023-04-15T03:37:22;3.83;;;2.38;;
79583;SDS011;69053;57.338;18.700;2023-04-15T03:42:23;5.97;;;2.80;;
79583;SDS011;69053;57.338;18.700;2023-04-15T03:47:23;6.07;;;2.70;;
79583;SDS011;69053;57.338;18.700;2023-04-15T03:52:24;5.00;;;2.22;;
79583;SDS011;69053;57.338;18.700;2023-04-15T03:57:24;8.50;;;3.10;;
79583;SDS011;69053;57.338;18.700;2023-04-15T04:02:25;6.38;;;2.40;;
79583;SDS011;69053;57.338;18.700;2023-04-15T04:07:27;6.05;;;2.80;;
79583;SDS011;69053;57.338;18.700;2023-04-15T04:12:27;5.15;;;2.55;;
79583;SDS011;69053;57.338;18.700;2023-04-15T04:17:28;3.60;;;2.25;;
79583;SDS011;69053;57.338;18.700;2023-04-15T04:22:28;7.00;;;3.42;;
79583;SDS011;69053;57.338;18.700;2023-04-15T04:27:29;5.20;;;2.78;;
79583;SDS011;69053;57.338;18.700;2023-04-15T04:32:30;5.18;;;2.80;;
79583;SDS011;69053;57.338;18.700;2023-04-15T04:37:31;5.88;;;2.97;;
79583;SDS011;69053;57.338;18.700;2023-04-15T04:42:31;8.70;;;3.30;;
79583;SDS011;69053;57.338;18.700;2023-04-15T04:47:32;10.93;;;2.90;;
79583;SDS011;69053;57.338;18.700;2023-04-15T04:52:32;8.02;;;3.20;;
79583;SDS011;69053;57.338;18.700;2023-04-15T04:57:33;4.30;;;2.45;;
79583;SDS011;69053;57.338;18.700;2023-04-15T05:02:35;7.93;;;3.40;;
79583;SDS011;69053;57.338;18.700;2023-04-15T05:07:35;9.50;;;3.47;;
79583;SDS011;69053;57.338;18.700;2023-04-15T05:12:36;6.65;;;3.03;;
79583;SDS011;69053;57.338;18.700;2023-04-15T05:17:37;7.60;;;2.78;;
79583;SDS011;69053;57.338;18.700;2023-04-15T05:22:41;6.55;;;3.20;;
79583;SDS011;69053;57.338;18.700;2023-04-15T05:27:42;6.60;;;2.90;;
79583;SDS011;69053;57.338;18.700;2023-04-15T05:32:42;8.60;;;3.45;;
79583;SDS011;69053;57.338;18.700;2023-04-15T05:37:43;7.68;;;3.25;;
79583;SDS011;69053;57.338;18.700;2023-04-15T05:42:47;8.70;;;3.53;;
79583;SDS011;69053;57.338;18.700;2023-04-15T05:58:26;9.50;;;2.95;;
79583;SDS011;69053;57.338;18.700;2023-04-15T06:03:27;8.07;;;3.25;;
79583;SDS011;69053;57.338;18.700;2023-04-15T06:08:28;6.07;;;2.92;;
79583;SDS011;69053;57.338;18.700;2023-04-15T06:13:31;5.10;;;3.00;;
79583;SDS011;69053;57.338;18.700;2023-04-15T06:18:33;7.40;;;3.30;;
79583;SDS011;69053;57.338;18.700;2023-04-15T06:23:33;8.55;;;3.65;;
79583;SDS011;69053;57.338;18.700;2023-04-15T06:28:35;6.55;;;3.03;;
79583;SDS011;69053;57.338;18.700;2023-04-15T06:33:36;7.43;;;3.55;;
79583;SDS011;69053;57.338;18.700;2023-04-15T06:38:36;6.50;;;3.35;;
79583;SDS011;69053;57.338;18.700;2023-04-15T06:43:37;8.48;;;4.40;;
79583;SDS011;69053;57.338;18.700;2023-04-15T06:48:38;6.72;;;2.90;;
79583;SDS011;69053;57.338;18.700;2023-04-15T06:53:39;6.97;;;3.30;;
79583;SDS011;69053;57.338;18.700;2023-04-15T06:58:41;8.95;;;3.42;;
79583;SDS011;69053;57.338;18.700;2023-04-15T07:03:41;6.05;;;3.03;;
79583;SDS011;69053;57.338;18.700;2023-04-15T07:08:45;6.55;;;3.30;;
79583;SDS011;69053;57.338;18.700;2023-04-15T07:13:45;7.00;;;2.80;;
79583;SDS011;69053;57.338;18.700;2023-04-15T07:18:46;8.68;;;4.00;;
79583;SDS011;69053;57.338;18.700;2023-04-15T07:23:47;8.40;;;3.05;;
79583;SDS011;69053;57.338;18.700;2023-04-15T07:28:50;7.50;;;3.47;;
79583;SDS011;69053;57.338;18.700;2023-04-15T07:33:52;7.47;;;3.50;;
79583;SDS011;69053;57.338;18.700;2023-04-15T07:38:55;7.60;;;3.53;;
79583;SDS011;69053;57.338;18.700;2023-04-15T07:43:56;5.50;;;3.50;;
79583;SDS011;69053;57.338;18.700;2023-04-15T07:48:58;7.15;;;3.90;;
79583;SDS011;69053;57.338;18.700;2023-04-15T07:53:58;8.55;;;3.75;;
79583;SDS011;69053;57.338;18.700;2023-04-15T07:58:59;7.57;;;3.63;;
79583;SDS011;69053;57.338;18.700;2023-04-15T08:04:01;6.53;;;3.50;;
79583;SDS011;69053;57.338;18.700;2023-04-15T08:09:02;9.65;;;3.75;;
79583;SDS011;69053;57.338;18.700;2023-04-15T08:14:03;6.53;;;3.05;;
79583;SDS011;69053;57.338;18.700;2023-04-15T08:19:03;5.22;;;3.50;;
79583;SDS011;69053;57.338;18.700;2023-04-15T08:24:16;7.50;;;4.00;;
79583;SDS011;69053;57.338;18.700;2023-04-15T08:29:17;7.82;;;3.97;;
79583;SDS011;69053;57.338;18.700;2023-04-15T08:34:18;5.55;;;2.90;;
79583;SDS011;69053;57.338;18.700;2023-04-15T08:39:19;5.95;;;3.28;;
79583;SDS011;69053;57.338;18.700;2023-04-15T08:44:19;6.30;;;4.32;;
79583;SDS011;69053;57.338;18.700;2023-04-15T08:49:22;6.00;;;3.92;;
79583;SDS011;69053;57.338;18.700;2023-04-15T08:54:26;8.15;;;4.20;;
79583;SDS011;69053;57.338;18.700;2023-04-15T08:59:28;4.80;;;2.75;;
79583;SDS011;69053;57.338;18.700;2023-04-15T09:04:30;7.13;;;3.42;;
79583;SDS011;69053;57.338;18.700;2023-04-15T09:09:30;6.10;;;3.25;;
79583;SDS011;69053;57.338;18.700;2023-04-15T09:14:31;7.25;;;3.78;;
79583;SDS011;69053;57.338;18.700;2023-04-15T09:19:33;5.82;;;3.67;;
79583;SDS011;69053;57.338;18.700;2023-04-15T09:24:37;5.60;;;3.60;;
79583;SDS011;69053;57.338;18.700;2023-04-15T09:29:40;5.38;;;3.22;;
79583;SDS011;69053;57.338;18.700;2023-04-15T09:34:41;5.50;;;3.22;;
79583;SDS011;69053;57.338;18.700;2023-04-15T09:39:49;6.25;;;3.33;;
79583;SDS011;69053;57.338;18.700;2023-04-15T09:44:51;6.95;;;3.83;;
79583;SDS011;69053;57.338;18.700;2023-04-15T09:49:55;5.70;;;3.40;;
79583;SDS011;69053;57.338;18.700;2023-04-15T09:54:57;7.30;;;3.55;;
79583;SDS011;69053;57.338;18.700;2023-04-15T09:59:59;5.18;;;3.60;;
79583;SDS011;69053;57.338;18.700;2023-04-15T10:05:03;6.10;;;3.83;;
79583;SDS011;69053;57.338;18.700;2023-04-15T10:10:05;6.93;;;4.22;;
79583;SDS011;69053;57.338;18.700;2023-04-15T10:15:06;7.03;;;3.92;;
79583;SDS011;69053;57.338;18.700;2023-04-15T10:20:13;8.77;;;3.95;;
79583;SDS011;69053;57.338;18.700;2023-04-15T10:25:15;5.93;;;3.97;;
79583;SDS011;69053;57.338;18.700;2023-04-15T10:30:16;7.85;;;4.20;;
79583;SDS011;69053;57.338;18.700;2023-04-15T10:35:17;6.95;;;4.57;;
79583;SDS011;69053;57.338;18.700;2023-04-15T10:40:33;6.60;;;4.03;;
79583;SDS011;69053;57.338;18.700;2023-04-15T10:45:35;8.32;;;4.28;;
79583;SDS011;69053;57.338;18.700;2023-04-15T10:50:36;6.70;;;4.00;;
79583;SDS011;69053;57.338;18.700;2023-04-15T10:55:37;7.30;;;4.60;;
79583;SDS011;69053;57.338;18.700;2023-04-15T11:00:37;7.03;;;4.35;;
79583;SDS011;69053;57.338;18.700;2023-04-15T11:10:49;9.60;;;4.45;;
79583;SDS011;69053;57.338;18.700;2023-04-15T11:15:53;6.60;;;4.20;;
79583;SDS011;69053;57.338;18.700;2023-04-15T11:20:59;7.25;;;4.10;;
79583;SDS011;69053;57.338;18.700;2023-04-15T11:26:03;8.15;;;4.80;;
79583;SDS011;69053;57.338;18.700;2023-04-15T11:31:14;7.45;;;5.18;;
79583;SDS011;69053;57.338;18.700;2023-04-15T11:36:16;8.57;;;4.03;;
79583;SDS011;69053;57.338;18.700;2023-04-15T11:41:20;10.18;;;4.55;;
79583;SDS011;69053;57.338;18.700;2023-04-15T11:46:28;9.73;;;4.70;;
79583;SDS011;69053;57.338;18.700;2023-04-15T11:51:32;6.80;;;4.13;;
79583;SDS011;69053;57.338;18.700;2023-04-15T11:56:34;9.52;;;5.18;;
79583;SDS011;69053;57.338;18.700;2023-04-15T12:01:35;9.65;;;5.03;;
79583;SDS011;69053;57.338;18.700;2023-04-15T12:06:41;9.30;;;4.57;;
79583;SDS011;69053;57.338;18.700;2023-04-15T12:11:43;8.60;;;4.88;;
79583;SDS011;69053;57.338;18.700;2023-04-15T12:16:48;7.18;;;4.53;;
79583;SDS011;69053;57.338;18.700;2023-04-15T12:21:56;8.50;;;4.80;;
79583;SDS011;69053;57.338;18.700;2023-04-15T12:27:15;7.65;;;4.80;;
79583;SDS011;69053;57.338;18.700;2023-04-15T12:32:16;7.45;;;4.85;;
79583;SDS011;69053;57.338;18.700;2023-04-15T12:37:22;9.45;;;4.78;;
79583;SDS011;69053;57.338;18.700;2023-04-15T12:42:22;8.48;;;4.50;;
79583;SDS011;69053;57.338;18.700;2023-04-15T12:47:23;11.50;;;5.05;;
79583;SDS011;69053;57.338;18.700;2023-04-15T12:52:23;7.57;;;4.40;;
79583;SDS011;69053;57.338;18.700;2023-04-15T12:57:24;9.48;;;4.65;;
79583;SDS011;69053;57.338;18.700;2023-04-15T13:02:25;9.30;;;4.57;;
79583;SDS011;69053;57.338;18.700;2023-04-15T13:07:27;8.32;;;4.03;;
79583;SDS011;69053;57.338;18.700;2023-04-15T13:12:28;7.97;;;3.95;;
79583;SDS011;69053;57.338;18.700;2023-04-15T13:17:30;7.10;;;3.97;;
79583;SDS011;69053;57.338;18.700;2023-04-15T13:22:33;5.60;;;3.45;;
79583;SDS011;69053;57.338;18.700;2023-04-15T13:27:34;8.48;;;4.30;;
79583;SDS011;69053;57.338;18.700;2023-04-15T13:32:34;7.75;;;4.30;;
79583;SDS011;69053;57.338;18.700;2023-04-15T13:37:35;6.90;;;4.68;;
79583;SDS011;69053;57.338;18.700;2023-04-15T13:42:36;9.05;;;4.57;;
79583;SDS011;69053;57.338;18.700;2023-04-15T13:47:36;6.05;;;4.25;;
79583;SDS011;69053;57.338;18.700;2023-04-15T13:52:38;8.23;;;5.07;;
79583;SDS011;69053;57.338;18.700;2023-04-15T13:57:39;8.52;;;5.43;;
79583;SDS011;69053;57.338;18.700;2023-04-15T14:02:40;9.65;;;3.92;;
79583;SDS011;69053;57.338;18.700;2023-04-15T14:07:41;9.38;;;4.05;;
79583;SDS011;69053;57.338;18.700;2023-04-15T14:12:41;9.20;;;5.05;;
79583;SDS011;69053;57.338;18.700;2023-04-15T14:17:42;6.00;;;4.45;;
79583;SDS011;69053;57.338;18.700;2023-04-15T14:22:43;8.88;;;4.15;;
79583;SDS011;69053;57.338;18.700;2023-04-15T14:27:44;7.70;;;4.18;;
79583;SDS011;69053;57.338;18.700;2023-04-15T14:32:45;7.32;;;3.92;;
79583;SDS011;69053;57.338;18.700;2023-04-15T14:37:56;7.53;;;4.68;;
79583;SDS011;69053;57.338;18.700;2023-04-15T14:43:09;7.40;;;4.22;;
79583;SDS011;69053;57.338;18.700;2023-04-15T14:48:10;5.32;;;3.65;;
79583;SDS011;69053;57.338;18.700;2023-04-15T14:53:11;6.88;;;3.75;;
79583;SDS011;69053;57.338;18.700;2023-04-15T14:58:12;9.27;;;4.78;;
79583;SDS011;69053;57.338;18.700;2023-04-15T15:03:12;7.45;;;3.67;;
79583;SDS011;69053;57.338;18.700;2023-04-15T15:08:13;8.13;;;4.82;;
79583;SDS011;69053;57.338;18.700;2023-04-15T15:13:14;7.85;;;4.28;;
79583;SDS011;69053;57.338;18.700;2023-04-15T15:18:15;9.20;;;5.57;;
79583;SDS011;69053;57.338;18.700;2023-04-15T15:23:17;12.73;;;4.93;;
79583;SDS011;69053;57.338;18.700;2023-04-15T15:28:18;6.68;;;4.32;;
79583;SDS011;69053;57.338;18.700;2023-04-15T15:33:20;6.72;;;4.00;;
79583;SDS011;69053;57.338;18.700;2023-04-15T15:38:21;6.40;;;4.00;;
79583;SDS011;69053;57.338;18.700;2023-04-15T15:43:22;8.90;;;4.28;;
79583;SDS011;69053;57.338;18.700;2023-04-15T15:48:22;8.40;;;4.20;;
79583;SDS011;69053;57.338;18.700;2023-04-15T15:53:23;12.85;;;10.15;;
79583;SDS011;69053;57.338;18.700;2023-04-15T15:58:24;10.60;;;6.75;;
79583;SDS011;69053;57.338;18.700;2023-04-15T16:03:25;7.70;;;5.57;;
79583;SDS011;69053;57.338;18.700;2023-04-15T16:08:28;7.38;;;5.28;;
79583;SDS011;69053;57.338;18.700;2023-04-15T16:13:29;7.63;;;4.90;;
79583;SDS011;69053;57.338;18.700;2023-04-15T16:18:30;7.35;;;4.57;;
79583;SDS011;69053;57.338;18.700;2023-04-15T16:23:30;9.32;;;5.50;;
79583;SDS011;69053;57.338;18.700;2023-04-15T16:28:31;7.57;;;5.55;;
79583;SDS011;69053;57.338;18.700;2023-04-15T16:33:31;8.55;;;4.63;;
79583;SDS011;69053;57.338;18.700;2023-04-15T16:38:32;9.40;;;5.63;;
79583;SDS011;69053;57.338;18.700;2023-04-15T16:43:32;9.38;;;4.43;;
79583;SDS011;69053;57.338;18.700;2023-04-15T16:48:33;7.15;;;3.97;;
79583;SDS011;69053;57.338;18.700;2023-04-15T16:53:34;7.35;;;4.30;;
79583;SDS011;69053;57.338;18.700;2023-04-15T16:58:34;10.43;;;4.65;;
79583;SDS011;69053;57.338;18.700;2023-04-15T17:03:35;8.93;;;4.43;;
79583;SDS011;69053;57.338;18.700;2023-04-15T17:08:36;8.40;;;4.15;;
79583;SDS011;69053;57.338;18.700;2023-04-15T17:13:37;8.18;;;4.10;;
79583;SDS011;69053;57.338;18.700;2023-04-15T17:18:38;7.63;;;3.58;;
79583;SDS011;69053;57.338;18.700;2023-04-15T17:23:38;8.68;;;3.63;;
79583;SDS011;69053;57.338;18.700;2023-04-15T17:28:39;7.07;;;4.03;;
79583;SDS011;69053;57.338;18.700;2023-04-15T17:33:39;10.00;;;4.05;;
79583;SDS011;69053;57.338;18.700;2023-04-15T17:38:42;6.38;;;3.42;;
79583;SDS011;69053;57.338;18.700;2023-04-15T17:43:44;7.07;;;3.55;;
79583;SDS011;69053;57.338;18.700;2023-04-15T17:48:45;9.73;;;3.67;;
79583;SDS011;69053;57.338;18.700;2023-04-15T17:53:46;7.18;;;3.95;;
79583;SDS011;69053;57.338;18.700;2023-04-15T17:58:47;8.55;;;4.28;;
79583;SDS011;69053;57.338;18.700;2023-04-15T18:03:47;8.85;;;4.35;;
79583;SDS011;69053;57.338;18.700;2023-04-15T18:08:48;8.20;;;3.92;;
79583;SDS011;69053;57.338;18.700;2023-04-15T18:13:49;9.90;;;3.70;;
79583;SDS011;69053;57.338;18.700;2023-04-15T18:18:49;7.60;;;3.65;;
79583;SDS011;69053;57.338;18.700;2023-04-15T18:23:50;7.85;;;4.03;;
79583;SDS011;69053;57.338;18.700;2023-04-15T18:28:51;5.28;;;3.42;;
79583;SDS011;69053;57.338;18.700;2023-04-15T18:33:54;9.73;;;4.35;;
79583;SDS011;69053;57.338;18.700;2023-04-15T18:39:05;7.28;;;3.53;;
79583;SDS011;69053;57.338;18.700;2023-04-15T18:44:05;6.70;;;3.80;;
79583;SDS011;69053;57.338;18.700;2023-04-15T18:49:06;6.22;;;3.40;;
79583;SDS011;69053;57.338;18.700;2023-04-15T18:54:06;6.38;;;3.63;;
79583;SDS011;69053;57.338;18.700;2023-04-15T18:59:07;5.90;;;3.50;;
79583;SDS011;69053;57.338;18.700;2023-04-15T19:04:07;5.88;;;3.75;;
79583;SDS011;69053;57.338;18.700;2023-04-15T19:09:09;7.20;;;4.13;;
79583;SDS011;69053;57.338;18.700;2023-04-15T19:14:09;4.75;;;2.75;;
79583;SDS011;69053;57.338;18.700;2023-04-15T19:19:10;8.50;;;3.60;;
79583;SDS011;69053;57.338;18.700;2023-04-15T19:24:13;5.88;;;3.78;;
79583;SDS011;69053;57.338;18.700;2023-04-15T19:29:14;7.07;;;4.18;;
79583;SDS011;69053;57.338;18.700;2023-04-15T19:34:14;7.15;;;3.35;;
79583;SDS011;69053;57.338;18.700;2023-04-15T19:39:15;7.75;;;3.78;;
79583;SDS011;69053;57.338;18.700;2023-04-15T19:44:17;9.52;;;3.80;;
79583;SDS011;69053;57.338;18.700;2023-04-15T19:49:18;6.80;;;3.65;;
79583;SDS011;69053;57.338;18.700;2023-04-15T19:54:18;8.35;;;4.38;;
79583;SDS011;69053;57.338;18.700;2023-04-15T19:59:19;6.60;;;3.25;;
79583;SDS011;69053;57.338;18.700;2023-04-15T20:04:22;10.13;;;3.83;;
79583;SDS011;69053;57.338;18.700;2023-04-15T20:09:26;10.63;;;4.03;;
79583;SDS011;69053;57.338;18.700;2023-04-15T20:14:27;8.63;;;3.70;;
79583;SDS011;69053;57.338;18.700;2023-04-15T20:19:27;8.05;;;3.40;;
79583;SDS011;69053;57.338;18.700;2023-04-15T20:24:28;6.75;;;3.25;;
79583;SDS011;69053;57.338;18.700;2023-04-15T20:29:28;6.28;;;3.70;;
79583;SDS011;69053;57.338;18.700;2023-04-15T20:34:29;7.35;;;4.00;;
79583;SDS011;69053;57.338;18.700;2023-04-15T20:39:30;7.45;;;3.80;;
79583;SDS011;69053;57.338;18.700;2023-04-15T20:44:30;6.93;;;3.42;;
79583;SDS011;69053;57.338;18.700;2023-04-15T20:49:32;6.63;;;3.50;;
79583;SDS011;69053;57.338;18.700;2023-04-15T20:54:35;6.45;;;2.92;;
79583;SDS011;69053;57.338;18.700;2023-04-15T20:59:36;5.60;;;3.65;;
79583;SDS011;69053;57.338;18.700;2023-04-15T21:04:39;4.70;;;3.05;;
79583;SDS011;69053;57.338;18.700;2023-04-15T21:09:39;7.22;;;3.50;;
79583;SDS011;69053;57.338;18.700;2023-04-15T21:14:41;6.30;;;3.05;;
79583;SDS011;69053;57.338;18.700;2023-04-15T21:19:42;6.38;;;3.28;;
79583;SDS011;69053;57.338;18.700;2023-04-15T21:24:43;6.00;;;3.30;;
79583;SDS011;69053;57.338;18.700;2023-04-15T21:29:43;5.97;;;3.35;;
79583;SDS011;69053;57.338;18.700;2023-04-15T21:34:44;5.45;;;3.33;;
79583;SDS011;69053;57.338;18.700;2023-04-15T21:39:44;7.35;;;2.88;;
79583;SDS011;69053;57.338;18.700;2023-04-15T21:44:45;5.05;;;3.03;;
79583;SDS011;69053;57.338;18.700;2023-04-15T21:49:45;7.90;;;3.38;;
79583;SDS011;69053;57.338;18.700;2023-04-15T21:54:47;5.75;;;2.92;;
79583;SDS011;69053;57.338;18.700;2023-04-15T21:59:47;7.55;;;3.13;;
79583;SDS011;69053;57.338;18.700;2023-04-15T22:04:48;8.23;;;3.55;;
79583;SDS011;69053;57.338;18.700;2023-04-15T22:09:49;9.52;;;4.38;;
79583;SDS011;69053;57.338;18.700;2023-04-15T22:14:49;7.90;;;3.17;;
79583;SDS011;69053;57.338;18.700;2023-04-15T22:19:50;9.15;;;3.45;;
79583;SDS011;69053;57.338;18.700;2023-04-15T22:24:50;10.05;;;3.40;;
79583;SDS011;69053;57.338;18.700;2023-04-15T22:29:51;7.32;;;3.88;;
79583;SDS011;69053;57.338;18.700;2023-04-15T22:34:52;9.45;;;3.83;;
79583;SDS011;69053;57.338;18.700;2023-04-15T22:39:52;7.90;;;3.30;;
79583;SDS011;69053;57.338;18.700;2023-04-15T22:44:53;6.50;;;2.95;;
79583;SDS011;69053;57.338;18.700;2023-04-15T22:49:53;7.75;;;2.90;;
79583;SDS011;69053;57.338;18.700;2023-04-15T22:54:54;7.90;;;2.97;;
79583;SDS011;69053;57.338;18.700;2023-04-15T22:59:54;4.88;;;2.55;;
79583;SDS011;69053;57.338;18.700;2023-04-15T23:04:55;6.43;;;3.38;;
79583;SDS011;69053;57.338;18.700;2023-04-15T23:09:56;6.50;;;3.53;;
79583;SDS011;69053;57.338;18.700;2023-04-15T23:14:59;7.00;;;3.38;;
79583;SDS011;69053;57.338;18.700;2023-04-15T23:19:59;8.85;;;3.50;;
79583;SDS011;69053;57.338;18.700;2023-04-15T23:25:00;10.00;;;3.50;;
79583;SDS011;69053;57.338;18.700;2023-04-15T23:30:01;7.32;;;3.20;;
79583;SDS011;69053;57.338;18.700;2023-04-15T23:35:02;8.38;;;3.15;;
79583;SDS011;69053;57.338;18.700;2023-04-15T23:40:02;4.85;;;2.58;;
79583;SDS011;69053;57.338;18.700;2023-04-15T23:45:04;7.82;;;3.03;;
79583;SDS011;69053;57.338;18.700;2023-04-15T23:50:07;6.10;;;3.20;;
79583;SDS011;69053;57.338;18.700;2023-04-15T23:55:08;6.53;;;2.95;;
